Logo AVAMET
Benvolgut visitant, si us plau, ingressa Recuperar contrasenya

Inforatge Algemesí

Dades diàries. Acumulats / Últims 30 dies disponibles

Data Temperatura (°C) Humitat rel. (%) Pressió rel. (hPa) Vent (km/h) Precipitació
Mínima Mitjana Màxima Amplitud
tèrmica
Mínima Mitjana Màxima Mínima Mitjana Màxima Predom. Mitjana Ràfega
màxima
Total
(mm)
Índex-n
Mínima Mitjana Màxima Mínima Mitjana Màxima n
0 a 1
P0 max
mm 5'
Dades mensuals acumulades fins l'últim dia disponible
01/2020 1,4 4,9 8,7 9,3 8,4 15,2 18,9 17,5 33 78 97 1.014 1.027 1.036   6,8 70,8 121,0
Dades anuals acumulades fins l'últim dia disponible
2020 1,4 4,9 8,7 9,3 8,4 15,2 18,9 17,5 33 78 97 1.014 1.027 1.036   6,8 70,8 121,0
Últims 30 dies disponibles
25-01-2020 8,7     10,8     12,9 4,2 82 91 93 1.019 1.021 1.023 SW 2,4 14,5 0,2
24-01-2020 7,0     10,1     13,7 6,7 77 89 94 1.022 1.024 1.025 WSW 1,9 12,9 0,0
23-01-2020 4,4     8,7     13,3 8,9 74 85 92 1.021 1.023 1.025 SW 4,7 19,3 0,0
22-01-2020 6,8     8,5     10,7 3,9 87 92 95 1.019 1.021 1.022 SW 3,2 14,5 19,4 0,44 3,40
21-01-2020 7,7     10,0     13,4 5,7 87 90 95 1.014 1.017 1.022 NNE 10,8 61,2 37,0 0,61 4,90
20-01-2020 4,7     6,8     8,4 3,7 82 88 92 1.020 1.022 1.023 NNE 22,4 67,6 39,2 0,51 2,50
19-01-2020 6,7     9,6     14,2 7,5 70 81 92 1.017 1.019 1.023 N 14,3 70,8 24,6 0,32 1,70
18-01-2020 7,8     12,6     18,9 11,1 47 67 80 1.021 1.029 1.034 SSW 6,4 25,7 0,0
17-01-2020 6,7     12,3     17,7 11,0 47 63 84 1.029 1.031 1.034 WSW 7,9 46,7 0,0
16-01-2020 6,6     11,7     18,8 12,2 49 72 85 1.027 1.029 1.031 SSW 6,6 22,5 0,0
15-01-2020 5,3     11,1     18,8 13,5 41 65 79 1.025 1.027 1.029 SW 10,3 29,0 0,0
14-01-2020 5,6     10,4     18,1 12,5 34 59 75 1.022 1.024 1.026 SSW 8,9 29,0 0,0
13-01-2020 1,4     8,9     17,8 16,4 33 61 86 1.024 1.027 1.032 SSW 9,3 25,7 0,0
12-01-2020 1,9     7,4     14,9 13,0 42 74 92 1.031 1.032 1.033 WSW 4,3 14,5 0,0
11-01-2020 3,2     9,3     16,7 13,5 46 72 92 1.030 1.032 1.035 SW 4,5 16,1 0,0
10-01-2020 5,7     9,9     14,9 9,2 51 77 92 1.025 1.027 1.031 NNE 6,4 43,5 0,0
09-01-2020 4,2     8,8     16,5 12,3 55 78 91 1.026 1.028 1.031 SW 5,8 24,1 0,2
08-01-2020 3,4     5,4     11,3 7,9 69 85 90 1.030 1.031 1.034 OSO 4,1 11,3 0,0
07-01-2020 2,3     8,2     16,9 14,6 48 83 92 1.030 1.032 1.034 SW 5,0 19,3 0,0
06-01-2020 5,4     9,9     15,6 10,2 63 81 91 1.029 1.031 1.033 SW 4,2 17,7 0,0
05-01-2020 4,0     9,3     18,3 14,3 44 71 87 1.028 1.030 1.033 SW 5,8 20,9 0,0
03-01-2020 2,3     7,4     13,4 11,1 78 90 91 1.033 1.034 1.035 WSW 4,7 19,3 0,2
02-01-2020 2,8     7,9     15,0 12,2 63 85 93 1.032 1.034 1.036 WSW 4,3 16,1 0,2
01-01-2020 3,2     8,2     14,5 11,3 61 83 97 1.033 1.034 1.036 WSW 4,2 16,1 0,0
31-12-2019 3,3     8,4     15,5 12,2 63 84 92 1.033 1.035 1.037 WSW 4,3 16,1 0,0
30-12-2019 6,8     10,9     16,1 9,3 56 80 89 1.034 1.034 1.037 SW 2,7 16,1 0,0
29-12-2019 6,3     10,0     15,7 9,4 63 83 92 1.032 1.034 1.036 SW 4,8 20,9 0,0
28-12-2019 6,6     10,2     14,2 7,6 73 82 90 1.031 1.033 1.034 WSW 4,2 22,5 0,0
27-12-2019 5,8     11,3     19,9 14,1 WSW 4,8 17,7 0,0
26-12-2019 9,9     15,9     23,8 13,9 44 58 67 1.024 1.025 1.027 SSW 8,2 27,4 0,0
Últims 13 mesos disponibles
12/2019 3,3 9,9 17,9 13,5 12,9 18,0 25,5 22,2 52 71 92 1.007 1.021 1.035 WSW 8,3 64,4 95,2
11/2019 4,8 11,2 20,8 15,2 15,7 19,9 28,1 23,3 48 61 80 1.001 1.012 1.020 WSW 8,8 54,7 10,2
10/2019 10,1 14,9 20,2 19,6 15,6 25,8 34,9 24,8 49 72 87 1.010 1.018 1.023 WSW 5,7 37,0 30,4
09/2019 14,6 19,4 22,9 23,5 21,4 28,1 34,8 20,2 42 75 87 1.011 1.018 1.025 N 7,1 51,5 77,4
08/2019 17,3 21,5 26,0 26,2 26,9 31,4 42,2 24,9 48 72 79 1.011 1.017 1.021 SSE 7,1 46,7 4,8
07/2019 19,9 22,0 25,7 26,4 26,3 30,9 36,4 16,5 58 71 79 1.012 1.016 1.022 SSE 7,1 46,7 2,6
06/2019 13,2 17,2 21,8 22,6 21,7 27,7 35,1 21,9 40 66 79 1.010 1.016 1.023 SE 7,7 53,7 4,0
05/2019 7,6 13,6 19,9 18,7 18,6 23,8 32,7 25,1 49 68 82 1.006 1.016 1.025 SSE 7,5 51,9 6,0
04/2019 7,9 10,9 14,6 15,1 14,6 20,2 29,7 21,8 46 69 94 1.001 1.015 1.027 SSE 8,5 58,0 193,2
03/2019 3,4 8,1 17,3 14,1 13,1 20,3 28,6 25,2 34 62 89 1.013 1.024 1.031 SSE 6,7 51,9 29,2
02/2019 3,2 5,8 11,1 11,6 13,4 18,0 24,9 21,7 36 67 85 994 1.024 1.033 S 6,7 75,9 0,2
01/2019 -1,7 5,3 12,9 10,5 12,7 17,0 20,9 22,6 44 61 84 1.001 1.018 1.030 SSO 7,2 53,7 0,2
12/2018 2,6 9,1 13,1 13,7 13,7 19,8 24,0 21,4 49 68 88 1.007 1.023 1.029 SO 7,4 51,9 15,2
Tots els anys disponibles
2019 -1,7 13,3 26,0 18,0 12,7 23,4 42,2 43,9 34 68 94 994 1.018 1.035 SSE 7,4 75,9 453,4
2018 2,0 15,0 25,2 18,9 9,6 23,8 37,3 35,3 37 69 97 994 1.015 1.030 OSO 7,1 94,5 825,0
2017 0,0 13,9 25,9 18,4 8,2 23,6 38,3 38,3 30 70 92 998 1.017 1.037 SE 4,5 70,3 298,5
2016 2,5 14,2 25,0 18,8 11,4 23,4 40,1 37,6 34 67 94 994 1.016 1.035 71,0 356,1
2015 0,7 13,9 21,0 18,8 22,8 23,7 43,0 42,3 60 67 75 1.013 1.017 1.028 80,0 439,8
2014 0,8 15,2 25,3 20,2 11,8 25,2 41,7 40,9 36 65 90 991 1.014 1.032 66,0 167,8
Temperatura (°C)
Humitat relativa (%)
Pressió (hPa)
Precipitació (mm)
Nota sobre les dades: s'avisa a l'usuari de la provisionalitat i no oficialitat d'aquestes dades
Logo AVAMET blanc
Web allotjada a Sollutia
Llicència de Creative CommonsLa web d'AVAMET i els seus continguts estan subjectes a una llicència de
Reconeixement - No Comercial - Compartir igual
Últimes estacions: Xixona - Els Ameradors (Soci), Agres - El Tossal (Soci), Xàbia - Bevenguts (MeteoXàbia), Llíria (Aj. Soci/Inforatge), Orihuela - Lo Capitán, Cox & Guardamar del Segura - horta (Meteorihuela), l'Alcúdia - Carriona & el Real de Gandia (Inforatge), Benicàssim - les Vil·les (Soci),  l'Alfàs del Pi - l'Albir (Soci), - - -